Time;durP1;ratioP1;P1;durP2;ratioP2;P2;SDS_P1;SDS_P2;PMS_P1;PMS_P2;Temp;Humidity;BMP_temperature;BMP_pressure;BME280_temperature;BME280_humidity;BME280_pressure;Samples;Min_cycle;Max_cycle;Signal;HPM_P1;HPM_P2
2022/06/03 00:00:33;;;;;;;1.85;1.33;;;21.20;47.80;;;;;;4909969;28;92681;-62
2022/06/03 00:03:18;;;;;;;1.65;1.25;;;21.20;47.90;;;;;;4909474;28;93128;-61
2022/06/03 00:05:52;;;;;;;1.35;1.20;;;21.20;48.00;;;;;;4908962;28;92034;-63
2022/06/03 00:08:46;;;;;;;1.80;1.00;;;21.20;47.90;;;;;;4907892;28;94261;-62
2022/06/03 00:11:43;;;;;;;2.38;1.42;;;21.20;48.00;;;;;;4909111;28;94163;-63
2022/06/03 00:14:17;;;;;;;3.03;1.48;;;21.10;47.90;;;;;;4909996;28;93050;-62
2022/06/03 00:16:50;;;;;;;1.55;1.30;;;21.10;48.10;;;;;;4909913;28;93128;-63
2022/06/03 00:19:19;;;;;;;1.58;1.10;;;21.10;48.10;;;;;;4891920;28;96382;-61
2022/06/03 00:21:59;;;;;;;2.03;1.23;;;21.20;48.20;;;;;;4909532;28;92478;-64
2022/06/03 00:24:46;;;;;;;1.40;1.30;;;21.10;48.20;;;;;;4891254;28;93129;-62
2022/06/03 00:27:46;;;;;;;2.70;1.33;;;21.10;48.30;;;;;;4908690;28;91882;-64
2022/06/03 00:30:36;;;;;;;1.45;1.30;;;21.10;48.40;;;;;;4908669;28;92982;-62
2022/06/03 00:33:20;;;;;;;1.85;1.38;;;21.10;48.40;;;;;;4909253;28;92725;-64
2022/06/03 00:36:15;;;;;;;1.58;1.27;;;21.10;48.50;;;;;;4908966;28;93885;-62
2022/06/03 00:39:00;;;;;;;1.90;1.58;;;21.10;48.50;;;;;;4909965;28;93513;-62
2022/06/03 00:41:50;;;;;;;1.70;1.30;;;21.10;48.60;;;;;;4908950;28;93032;-62
2022/06/03 00:44:34;;;;;;;1.42;1.30;;;21.10;48.60;;;;;;4908194;28;93611;-62
2022/06/03 00:47:22;;;;;;;4.03;1.50;;;21.10;48.60;;;;;;4890920;28;92126;-64
2022/06/03 00:50:39;;;;;;;1.33;1.23;;;21.10;48.60;;;;;;4908758;28;92606;-64
2022/06/03 00:53:33;;;;;;;1.48;1.38;;;21.10;48.70;;;;;;4875448;28;92486;-64
2022/06/03 00:56:17;;;;;;;1.45;1.35;;;21.10;49.00;;;;;;4909959;28;93007;-62
2022/06/03 00:59:02;;;;;;;1.85;1.40;;;21.10;48.90;;;;;;4909056;28;92467;-63
2022/06/03 01:01:29;;;;;;;1.52;1.30;;;21.10;49.00;;;;;;4909207;28;92875;-62
2022/06/03 01:04:50;;;;;;;1.73;1.48;;;21.10;48.90;;;;;;4890356;28;96860;-62
2022/06/03 01:08:11;;;;;;;2.00;1.42;;;21.10;49.20;;;;;;4829276;29;93726;-63
2022/06/03 01:10:45;;;;;;;1.73;1.30;;;21.10;49.00;;;;;;4898723;28;92392;-62
2022/06/03 01:13:39;;;;;;;2.03;1.30;;;21.10;49.20;;;;;;4908130;28;92798;-61
2022/06/03 01:16:13;;;;;;;1.40;1.23;;;21.10;49.20;;;;;;4891419;28;95932;-62
2022/06/03 01:18:58;;;;;;;2.03;1.20;;;21.10;49.20;;;;;;4908599;28;92967;-62
2022/06/03 01:22:01;;;;;;;1.50;1.40;;;21.10;49.40;;;;;;4909213;28;92900;-61
2022/06/03 01:24:57;;;;;;;1.90;1.30;;;21.10;49.20;;;;;;4909557;28;92065;-62
2022/06/03 01:27:50;;;;;;;1.48;1.38;;;21.10;49.20;;;;;;4908063;28;93297;-62
2022/06/03 01:30:40;;;;;;;1.95;1.33;;;21.10;49.20;;;;;;4908177;28;93055;-63
2022/06/03 01:33:34;;;;;;;1.63;1.10;;;21.10;49.20;;;;;;4907617;28;94819;-64
2022/06/03 01:36:54;;;;;;;1.25;1.15;;;21.10;49.30;;;;;;4908472;28;93190;-62
2022/06/03 01:40:00;;;;;;;1.75;1.30;;;21.10;49.40;;;;;;4831313;29;92760;-62
2022/06/03 01:42:32;;;;;;;1.10;1.10;;;21.10;49.40;;;;;;4833262;29;92822;-61
2022/06/03 01:45:37;;;;;;;1.40;1.30;;;21.10;49.40;;;;;;4893405;28;92069;-65
2022/06/03 01:48:02;;;;;;;1.45;1.35;;;21.10;49.40;;;;;;4897564;28;95055;-62
2022/06/03 01:50:46;;;;;;;1.38;1.27;;;21.10;49.40;;;;;;4911970;28;93111;-63
2022/06/03 01:53:18;;;;;;;1.88;1.10;;;21.10;49.40;;;;;;4912584;28;92544;-62
2022/06/03 01:55:49;;;;;;;1.40;1.30;;;21.00;49.50;;;;;;4911475;28;92685;-64
2022/06/03 01:58:38;;;;;;;1.40;1.30;;;21.10;49.60;;;;;;4910471;28;92885;-62
2022/06/03 02:01:22;;;;;;;1.50;1.40;;;21.10;49.70;;;;;;4893278;28;97052;-62
2022/06/03 02:04:05;;;;;;;1.30;1.20;;;21.00;49.40;;;;;;4911617;28;93700;-62
2022/06/03 02:06:56;;;;;;;1.70;1.60;;;21.00;49.50;;;;;;4910945;28;93230;-63
2022/06/03 02:09:24;;;;;;;2.42;1.30;;;21.10;49.60;;;;;;4911006;28;92197;-61
2022/06/03 02:12:05;;;;;;;1.50;1.38;;;21.10;49.60;;;;;;4911198;28;94081;-63
2022/06/03 02:15:01;;;;;;;1.20;1.10;;;21.00;49.60;;;;;;4911206;28;93215;-62
2022/06/03 02:17:38;;;;;;;1.35;1.20;;;21.00;49.60;;;;;;4893529;28;92378;-61
2022/06/03 02:20:42;;;;;;;1.50;1.40;;;21.00;49.50;;;;;;4893397;28;91562;-61
2022/06/03 02:23:45;;;;;;;1.00;1.00;;;21.00;49.60;;;;;;4836753;29;93853;-62
2022/06/03 02:26:56;;;;;;;1.27;1.17;;;21.00;49.70;;;;;;4910758;28;93345;-62
2022/06/03 02:32:39;;;;;;;1.45;1.35;;;21.00;49.70;;;;;;4911157;28;92679;-62
2022/06/03 02:35:26;;;;;;;1.40;1.30;;;21.00;49.60;;;;;;4910201;28;92587;-61
2022/06/03 02:38:07;;;;;;;1.00;1.00;;;21.00;49.60;;;;;;4910476;28;92921;-61
2022/06/03 02:40:57;;;;;;;1.45;1.30;;;21.00;49.70;;;;;;4910613;28;92442;-61
2022/06/03 02:43:41;;;;;;;1.42;1.23;;;21.00;49.70;;;;;;4891813;28;92770;-62
2022/06/03 02:46:12;;;;;;;2.75;1.30;;;21.00;49.70;;;;;;4909559;28;94106;-62
2022/06/03 02:48:56;;;;;;;1.40;1.30;;;21.00;49.80;;;;;;4910575;28;93329;-62
2022/06/03 02:51:50;;;;;;;1.20;1.10;;;21.00;49.70;;;;;;4910308;28;92813;-61
2022/06/03 02:54:52;;;;;;;1.85;1.33;;;21.00;49.70;;;;;;4910517;28;92679;-62
2022/06/03 02:57:26;;;;;;;1.90;1.30;;;21.00;49.90;;;;;;4909176;28;94262;-62
2022/06/03 03:00:18;;;;;;;1.20;1.10;;;21.00;50.00;;;;;;4892421;28;96569;-62
2022/06/03 03:03:17;;;;;;;1.40;1.30;;;21.00;49.80;;;;;;4892938;28;92045;-62
2022/06/03 03:05:48;;;;;;;1.60;1.50;;;21.00;50.00;;;;;;4873860;28;92410;-62
2022/06/03 03:08:49;;;;;;;1.30;1.20;;;21.00;49.80;;;;;;4910159;28;93371;-62
2022/06/03 03:11:20;;;;;;;1.20;1.10;;;21.00;50.00;;;;;;4909645;28;93454;-62
2022/06/03 03:14:17;;;;;;;1.55;1.45;;;21.00;49.90;;;;;;4909482;28;92585;-61
2022/06/03 03:16:53;;;;;;;1.40;1.30;;;21.00;49.90;;;;;;4894125;28;92153;-62
2022/06/03 03:19:49;;;;;;;1.48;1.30;;;21.00;50.00;;;;;;4910979;28;92829;-61
2022/06/03 03:22:52;;;;;;;1.15;1.13;;;21.00;50.00;;;;;;4909996;28;92629;-64
2022/06/03 03:25:29;;;;;;;2.00;1.40;;;21.00;50.00;;;;;;4909779;28;94018;-63
2022/06/03 03:28:06;;;;;;;1.40;1.30;;;21.00;49.90;;;;;;4908403;28;92863;-62
2022/06/03 03:30:37;;;;;;;1.48;1.10;;;21.00;50.10;;;;;;4909817;28;94251;-65
2022/06/03 03:33:41;;;;;;;1.20;1.10;;;21.00;50.00;;;;;;4909694;28;93717;-62
2022/06/03 03:36:06;;;;;;;1.25;1.15;;;21.00;50.00;;;;;;4880077;28;93320;-62
2022/06/03 03:39:09;;;;;;;1.30;1.20;;;21.00;50.10;;;;;;4909783;28;92786;-62
2022/06/03 03:42:08;;;;;;;1.40;1.30;;;21.00;50.00;;;;;;4880875;28;93411;-62
2022/06/03 03:45:28;;;;;;;1.17;1.10;;;20.90;50.20;;;;;;4892888;28;96211;-62
2022/06/03 03:48:15;;;;;;;1.65;1.23;;;21.00;50.20;;;;;;4830505;29;92631;-62
2022/06/03 03:50:53;;;;;;;1.30;1.20;;;21.00;50.20;;;;;;4905008;28;92996;-62
2022/06/03 03:53:41;;;;;;;1.40;1.20;;;20.90;50.10;;;;;;4909147;28;93981;-61
2022/06/03 03:56:07;;;;;;;1.10;1.00;;;20.90;50.10;;;;;;4871014;28;93787;-62
2022/06/03 03:58:50;;;;;;;1.88;1.30;;;20.90;50.00;;;;;;4909803;28;92968;-62
2022/06/03 04:01:48;;;;;;;1.75;1.33;;;20.90;50.10;;;;;;4909388;28;93321;-62
2022/06/03 04:04:43;;;;;;;1.48;1.27;;;20.90;50.10;;;;;;4909169;28;93112;-62
2022/06/03 04:07:30;;;;;;;1.23;1.10;;;20.90;50.20;;;;;;4908311;28;92174;-64
2022/06/03 04:10:29;;;;;;;1.30;1.10;;;20.90;50.10;;;;;;4908611;28;92474;-65
2022/06/03 04:13:30;;;;;;;1.45;1.13;;;20.90;50.20;;;;;;4910633;28;92259;-64
2022/06/03 04:16:17;;;;;;;2.08;1.30;;;20.90;50.20;;;;;;4879300;28;92903;-64
2022/06/03 04:19:01;;;;;;;1.48;1.25;;;20.90;50.30;;;;;;4909943;28;92915;-61
2022/06/03 04:21:51;;;;;;;1.40;1.10;;;21.00;50.40;;;;;;4908917;28;94010;-61
2022/06/03 04:24:20;;;;;;;1.25;1.15;;;20.90;50.30;;;;;;4908897;28;92512;-63
2022/06/03 04:27:11;;;;;;;1.23;1.10;;;21.00;50.30;;;;;;4909525;28;93188;-62
2022/06/03 04:30:07;;;;;;;1.13;1.02;;;21.00;50.30;;;;;;4900188;28;93384;-63
2022/06/03 04:33:19;;;;;;;1.27;1.17;;;21.00;50.20;;;;;;4909267;28;93102;-63
2022/06/03 04:36:29;;;;;;;1.27;1.17;;;21.00;50.10;;;;;;4909298;28;92740;-62
2022/06/03 04:39:16;;;;;;;1.63;1.27;;;21.00;50.10;;;;;;4905988;28;93347;-64
2022/06/03 04:41:42;;;;;;;1.30;1.20;;;21.00;50.10;;;;;;4909428;28;92211;-63
2022/06/03 04:44:45;;;;;;;1.38;1.27;;;21.00;50.30;;;;;;4909583;28;93442;-62
2022/06/03 04:47:35;;;;;;;1.33;1.23;;;21.00;50.30;;;;;;4908720;28;92564;-62
2022/06/03 04:50:51;;;;;;;1.40;1.30;;;21.10;50.30;;;;;;4908211;28;96118;-62
2022/06/03 04:53:40;;;;;;;1.25;1.15;;;21.00;50.30;;;;;;4908717;28;93752;-64
2022/06/03 04:56:38;;;;;;;1.10;1.00;;;21.00;50.40;;;;;;4909153;28;92695;-62
2022/06/03 04:59:22;;;;;;;1.27;1.17;;;21.10;50.40;;;;;;4908926;28;92583;-62
2022/06/03 05:02:05;;;;;;;1.13;0.95;;;21.10;50.60;;;;;;4908578;28;93082;-62
2022/06/03 05:05:08;;;;;;;1.20;1.10;;;21.10;50.40;;;;;;4908395;28;93270;-62
2022/06/03 05:07:45;;;;;;;1.20;1.10;;;21.10;50.50;;;;;;4909310;28;92471;-65
2022/06/03 05:10:28;;;;;;;0.90;0.90;;;21.10;50.60;;;;;;4892094;28;92364;-62
2022/06/03 05:13:16;;;;;;;1.30;1.20;;;21.10;50.70;;;;;;4907427;28;93148;-62
2022/06/03 05:16:08;;;;;;;1.40;1.30;;;21.10;50.80;;;;;;4908523;28;92266;-62
2022/06/03 05:18:51;;;;;;;1.20;1.10;;;21.10;50.80;;;;;;4878506;28;93567;-62
2022/06/03 05:21:36;;;;;;;1.10;1.10;;;21.10;51.00;;;;;;4908975;28;93073;-64
2022/06/03 05:24:32;;;;;;;1.27;1.17;;;21.10;51.00;;;;;;4909204;28;93126;-62
2022/06/03 05:27:16;;;;;;;1.20;1.13;;;21.10;51.10;;;;;;4907505;28;92949;-62
2022/06/03 05:30:17;;;;;;;1.13;1.00;;;21.10;50.90;;;;;;4907565;28;92911;-62
2022/06/03 05:33:23;;;;;;;1.20;1.10;;;21.10;51.10;;;;;;4908740;28;92308;-64
2022/06/03 05:35:54;;;;;;;1.63;1.20;;;21.10;51.20;;;;;;4908222;28;93022;-64
2022/06/03 05:38:40;;;;;;;1.38;1.25;;;21.10;51.30;;;;;;4891649;28;95726;-62
2022/06/03 05:45:16;;;;;;;1.50;1.40;;;21.20;51.40;;;;;;4908263;28;93267;-61
2022/06/03 05:47:59;;;;;;;1.20;1.10;;;21.20;51.40;;;;;;4848763;28;94196;-61
2022/06/03 05:50:55;;;;;;;1.50;1.40;;;21.20;51.40;;;;;;4908282;28;93873;-64
2022/06/03 05:53:56;;;;;;;1.20;1.10;;;21.20;51.60;;;;;;4908233;28;93149;-62
2022/06/03 05:56:50;;;;;;;1.27;1.17;;;21.20;51.50;;;;;;4908163;28;91890;-62
2022/06/03 05:59:45;;;;;;;1.20;1.10;;;21.20;51.70;;;;;;4906561;28;97033;-62
2022/06/03 06:02:38;;;;;;;1.80;1.20;;;21.20;51.60;;;;;;4908164;28;92736;-62
2022/06/03 06:05:30;;;;;;;2.83;1.17;;;21.20;51.80;;;;;;4890497;28;93390;-65
2022/06/03 06:08:32;;;;;;;1.40;1.20;;;21.20;51.90;;;;;;4908477;28;92163;-63
2022/06/03 06:11:13;;;;;;;1.35;1.00;;;21.20;52.00;;;;;;4895100;28;93382;-64
2022/06/03 06:13:45;;;;;;;2.53;1.42;;;21.20;52.00;;;;;;4907875;28;93273;-63
2022/06/03 06:16:22;;;;;;;1.45;1.10;;;21.30;52.00;;;;;;4907898;28;93156;-63
2022/06/03 06:19:07;;;;;;;2.03;1.42;;;21.20;52.30;;;;;;4889005;28;92154;-63
2022/06/03 06:21:44;;;;;;;11.13;2.97;;;21.30;52.80;;;;;;4889336;28;94626;-62
2022/06/03 06:24:44;;;;;;;7.47;2.35;;;21.20;52.20;;;;;;4896882;28;95902;-64
2022/06/03 06:27:32;;;;;;;7.25;2.20;;;21.20;51.70;;;;;;4911168;28;92700;-62
2022/06/03 06:30:19;;;;;;;8.05;1.95;;;21.20;51.70;;;;;;4911600;28;92932;-63
2022/06/03 06:32:58;;;;;;;6.75;1.95;;;21.20;51.70;;;;;;4911111;28;93166;-62
2022/06/03 06:35:36;;;;;;;4.82;2.00;;;21.20;51.40;;;;;;4911009;28;92999;-62
2022/06/03 06:38:31;;;;;;;2.28;1.52;;;21.20;50.60;;;;;;4912144;28;92523;-62
2022/06/03 06:41:12;;;;;;;3.90;1.60;;;21.30;50.60;;;;;;4893386;28;93169;-65
2022/06/03 06:43:40;;;;;;;3.75;1.85;;;21.20;50.80;;;;;;4910599;28;94004;-64
2022/06/03 06:46:10;;;;;;;2.33;1.67;;;21.20;50.90;;;;;;4911270;28;92971;-65
2022/06/03 06:48:55;;;;;;;4.55;1.70;;;21.20;50.70;;;;;;4910966;28;92769;-64
2022/06/03 06:51:21;;;;;;;12.85;4.30;;;21.20;50.90;;;;;;4893297;28;93050;-62
2022/06/03 06:54:04;;;;;;;9.82;2.17;;;21.20;51.40;;;;;;4884552;28;95810;-62
2022/06/03 06:56:42;;;;;;;6.25;1.85;;;21.30;51.30;;;;;;4891442;28;94382;-62
2022/06/03 06:59:19;;;;;;;5.15;1.67;;;21.30;51.20;;;;;;4909861;28;92147;-63
2022/06/03 07:02:12;;;;;;;3.78;1.88;;;21.30;51.00;;;;;;4892451;28;91336;-62
2022/06/03 07:04:47;;;;;;;3.17;1.80;;;21.30;50.80;;;;;;4896590;28;96689;-62
2022/06/03 07:07:30;;;;;;;3.85;1.70;;;21.30;50.70;;;;;;4907463;28;93353;-61
2022/06/03 07:10:16;;;;;;;8.13;2.03;;;21.30;50.80;;;;;;4908270;28;94027;-64
2022/06/03 07:12:51;;;;;;;2.65;1.70;;;21.30;50.40;;;;;;4858011;28;92599;-63
2022/06/03 07:15:23;;;;;;;2.70;1.52;;;21.30;50.30;;;;;;4899373;28;95218;-63
2022/06/03 07:21:06;;;;;;;4.00;2.05;;;21.40;50.60;;;;;;4907170;28;92932;-62
2022/06/03 07:23:35;;;;;;;7.68;2.03;;;21.40;50.80;;;;;;4909623;28;92948;-62
2022/06/03 07:26:27;;;;;;;31.87;6.80;;;21.40;50.70;;;;;;4909959;28;93557;-62
2022/06/03 07:29:01;;;;;;;27.67;5.45;;;21.40;50.90;;;;;;4872114;28;96062;-65
2022/06/03 07:31:55;;;;;;;21.50;5.50;;;21.40;50.80;;;;;;4908009;28;93515;-62
2022/06/03 07:34:25;;;;;;;28.25;5.68;;;21.40;50.80;;;;;;4905321;28;92672;-62
2022/06/03 07:36:56;;;;;;;21.88;5.50;;;21.40;50.60;;;;;;4901752;28;94226;-63
2022/06/03 07:39:27;;;;;;;30.23;6.07;;;21.40;50.80;;;;;;4906070;28;93775;-63
2022/06/03 07:42:10;;;;;;;18.10;5.25;;;21.40;50.60;;;;;;4908665;28;92935;-63
2022/06/03 07:45:06;;;;;;;24.27;6.25;;;21.40;50.70;;;;;;4897399;28;92532;-63
2022/06/03 07:47:33;;;;;;;26.05;5.80;;;21.50;50.80;;;;;;4894470;28;92870;-63
2022/06/03 07:50:01;;;;;;;23.02;5.72;;;21.50;50.90;;;;;;4907441;28;92705;-63
2022/06/03 07:52:32;;;;;;;23.48;5.53;;;21.50;50.90;;;;;;4896444;28;92629;-64
2022/06/03 07:54:59;;;;;;;24.90;5.97;;;21.50;51.60;;;;;;4909075;28;92758;-64
2022/06/03 07:57:28;;;;;;;25.20;7.20;;;21.50;51.20;;;;;;4889035;28;96803;-64
2022/06/03 08:00:07;;;;;;;24.45;5.78;;;21.50;51.30;;;;;;4908702;28;92542;-66
2022/06/03 08:02:32;;;;;;;23.15;5.82;;;21.50;51.70;;;;;;4908348;28;93623;-64
2022/06/03 08:05:19;;;;;;;17.50;5.45;;;21.50;51.70;;;;;;4909333;28;92581;-64
2022/06/03 08:10:57;;;;;;;18.50;4.90;;;21.50;51.90;;;;;;4909190;28;92956;-63
2022/06/03 08:13:44;;;;;;;20.02;5.70;;;21.50;52.10;;;;;;4909022;28;92516;-64
2022/06/03 08:16:29;;;;;;;14.57;4.68;;;21.50;52.20;;;;;;4909246;28;92048;-63
2022/06/03 08:19:17;;;;;;;19.88;4.97;;;21.50;52.20;;;;;;4908996;28;93111;-63
2022/06/03 08:21:53;;;;;;;14.47;4.20;;;21.50;52.50;;;;;;4890979;28;95447;-63
2022/06/03 08:24:30;;;;;;;14.95;4.22;;;21.50;52.50;;;;;;4908809;28;92911;-64
2022/06/03 08:27:01;;;;;;;17.50;3.85;;;21.50;52.50;;;;;;4908283;28;92236;-63
2022/06/03 08:29:39;;;;;;;24.40;5.50;;;21.60;52.50;;;;;;4908089;28;93391;-62
2022/06/03 08:32:21;;;;;;;19.35;5.05;;;21.50;52.40;;;;;;4909065;28;93833;-65
2022/06/03 08:34:52;;;;;;;21.08;5.55;;;21.50;52.60;;;;;;4890873;28;92570;-64
2022/06/03 08:37:25;;;;;;;15.57;4.32;;;21.50;52.60;;;;;;4908873;28;92553;-64
2022/06/03 08:39:54;;;;;;;14.02;3.97;;;21.50;52.30;;;;;;4909315;28;94409;-64
2022/06/03 08:42:26;;;;;;;9.00;3.35;;;21.50;51.50;;;;;;4910037;28;93009;-64
2022/06/03 08:45:11;;;;;;;16.33;3.80;;;21.50;51.60;;;;;;4909982;28;92366;-62
2022/06/03 08:47:58;;;;;;;15.55;3.58;;;21.50;51.80;;;;;;4909997;28;91720;-66
2022/06/03 08:50:24;;;;;;;12.20;3.90;;;21.60;57.00;;;;;;4909254;28;94157;-65
2022/06/03 08:53:01;;;;;;;13.38;3.83;;;21.60;52.60;;;;;;4909346;28;92401;-67
2022/06/03 08:55:38;;;;;;;14.95;3.35;;;21.60;53.30;;;;;;4904987;28;94182;-66
2022/06/03 08:58:20;;;;;;;16.65;3.50;;;21.70;52.10;;;;;;4889732;28;92863;-66
2022/06/03 09:01:19;;;;;;;14.25;3.60;;;21.70;52.10;;;;;;4902412;28;96378;-67
2022/06/03 09:04:01;;;;;;;22.45;5.07;;;21.70;52.30;;;;;;4908102;28;93255;-68
2022/06/03 09:06:33;;;;;;;10.80;3.47;;;21.70;52.00;;;;;;4908648;28;92234;-69
2022/06/03 09:09:12;;;;;;;16.45;3.75;;;21.70;51.60;;;;;;4908941;28;92049;-65
2022/06/03 09:11:46;;;;;;;15.13;4.28;;;21.70;51.40;;;;;;4884768;28;96310;-66
2022/06/03 09:14:21;;;;;;;20.13;6.30;;;21.70;51.70;;;;;;4907586;28;92803;-68
2022/06/03 09:16:49;;;;;;;24.38;8.35;;;21.70;52.20;;;;;;4909178;28;93180;-68
2022/06/03 09:19:21;;;;;;;13.93;5.28;;;21.70;52.00;;;;;;4908841;28;92136;-69
2022/06/03 09:21:51;;;;;;;11.20;4.80;;;21.70;51.20;;;;;;4907954;28;94060;-67
2022/06/03 09:24:23;;;;;;;19.92;5.45;;;21.70;51.00;;;;;;4908737;28;93500;-68
2022/06/03 09:26:57;;;;;;;19.33;5.55;;;21.60;50.80;;;;;;4909230;28;92132;-69
2022/06/03 09:29:24;;;;;;;16.90;4.97;;;21.70;51.00;;;;;;4908561;28;92148;-68
2022/06/03 09:31:54;;;;;;;15.52;6.03;;;21.70;51.00;;;;;;4908172;28;93008;-68
2022/06/03 09:34:31;;;;;;;26.88;7.55;;;21.70;51.10;;;;;;4907638;28;95638;-68
2022/06/03 09:36:57;;;;;;;22.30;7.78;;;21.70;51.50;;;;;;4906357;28;92180;-68
2022/06/03 09:39:23;;;;;;;29.73;7.47;;;21.70;51.60;;;;;;4909249;28;91804;-67
2022/06/03 09:41:55;;;;;;;24.10;7.65;;;21.70;51.60;;;;;;4889965;28;95797;-67
2022/06/03 09:44:24;;;;;;;25.48;7.18;;;21.70;51.60;;;;;;4908152;28;92481;-68
2022/06/03 09:47:02;;;;;;;22.98;6.68;;;21.70;51.60;;;;;;4904511;28;93489;-68
2022/06/03 09:49:30;;;;;;;17.43;6.43;;;21.70;51.80;;;;;;4908196;28;92127;-69
2022/06/03 09:51:56;;;;;;;15.27;6.25;;;21.70;51.50;;;;;;4907544;28;93419;-68
2022/06/03 09:54:39;;;;;;;20.10;6.10;;;21.70;51.50;;;;;;4905619;28;93034;-68
2022/06/03 09:57:07;;;;;;;20.15;5.45;;;21.70;51.20;;;;;;4907407;28;93008;-68
2022/06/03 09:59:36;;;;;;;15.73;5.85;;;21.70;51.00;;;;;;4908147;28;92905;-67
2022/06/03 10:02:04;;;;;;;14.30;5.30;;;21.70;51.30;;;;;;4911565;28;94256;-68
2022/06/03 10:04:29;;;;;;;15.98;5.45;;;21.70;51.40;;;;;;4911566;28;92430;-68
2022/06/03 10:06:59;;;;;;;18.35;5.82;;;21.70;51.50;;;;;;4912245;28;92737;-67
2022/06/03 10:18:04;;;;;;;14.18;4.93;;;21.70;52.10;;;;;;4912687;28;93027;-69
2022/06/03 10:20:30;;;;;;;13.75;5.03;;;21.70;52.20;;;;;;4911743;28;93010;-69
2022/06/03 10:22:56;;;;;;;10.93;4.90;;;21.70;52.20;;;;;;4911054;28;92761;-68
2022/06/03 10:25:24;;;;;;;13.77;4.95;;;21.70;52.20;;;;;;4910624;28;92470;-69
2022/06/03 10:27:49;;;;;;;13.73;4.25;;;21.60;52.20;;;;;;4909820;28;92552;-67
2022/06/03 10:30:26;;;;;;;13.95;4.30;;;21.70;52.00;;;;;;4910418;28;92334;-69
2022/06/03 10:32:52;;;;;;;18.50;4.18;;;21.70;51.60;;;;;;4910098;28;93736;-67
2022/06/03 10:35:27;;;;;;;9.77;3.75;;;21.80;57.00;;;;;;4910334;28;94307;-68
2022/06/03 10:37:59;;;;;;;11.68;3.83;;;21.80;62.00;;;;;;4892394;28;93091;-68
2022/06/03 10:40:26;;;;;;;13.45;3.75;;;21.80;65.00;;;;;;4910694;28;92198;-68
2022/06/03 10:43:00;;;;;;;10.85;3.83;;;21.80;71.20;;;;;;4909565;28;95830;-68
2022/06/03 10:45:37;;;;;;;9.30;3.08;;;21.80;73.50;;;;;;4910682;28;92983;-68
2022/06/03 10:48:24;;;;;;;11.18;3.25;;;21.70;66.40;;;;;;4909958;28;93025;-68
2022/06/03 10:50:50;;;;;;;11.93;2.60;;;21.80;61.80;;;;;;4910087;28;92186;-69
2022/06/03 11:01:56;;;;;;;7.22;1.90;;;21.80;56.50;;;;;;4909428;28;92499;-68
2022/06/03 11:04:33;;;;;;;4.63;1.80;;;21.80;58.00;;;;;;4908952;28;93989;-68
2022/06/03 11:07:02;;;;;;;6.50;1.70;;;21.80;54.90;;;;;;4909943;28;93289;-68
2022/06/03 11:09:28;;;;;;;9.63;2.97;;;21.80;55.20;;;;;;4891689;28;92671;-69
2022/06/03 11:12:07;;;;;;;7.82;2.78;;;21.80;53.80;;;;;;4910226;28;93395;-68
2022/06/03 11:14:41;;;;;;;7.97;2.70;;;21.80;51.50;;;;;;4906057;28;94525;-69
2022/06/03 11:17:19;;;;;;;6.03;2.00;;;21.80;50.30;;;;;;4910345;28;93413;-69
2022/06/03 11:19:56;;;;;;;14.52;2.67;;;21.80;50.50;;;;;;4911420;28;92371;-68
2022/06/03 11:22:39;;;;;;;9.73;2.28;;;21.80;50.00;;;;;;4909988;28;92178;-68
2022/06/03 11:25:17;;;;;;;10.90;2.67;;;21.80;55.30;;;;;;4909743;28;93153;-68
2022/06/03 11:27:46;;;;;;;7.85;2.70;;;21.80;54.30;;;;;;4908835;28;95781;-68
2022/06/03 11:30:48;;;;;;;10.00;2.28;;;21.80;55.40;;;;;;4909371;28;94410;-68
2022/06/03 11:33:36;;;;;;;6.28;2.22;;;21.80;53.20;;;;;;4904686;28;92576;-68
2022/06/03 11:36:28;;;;;;;9.43;2.50;;;21.80;56.10;;;;;;4909337;28;93168;-68
2022/06/03 11:39:00;;;;;;;20.02;8.05;;;21.80;55.00;;;;;;4908171;28;92549;-69
2022/06/03 11:41:33;;;;;;;56.78;20.80;;;21.80;52.50;;;;;;4908889;28;92046;-68
2022/06/03 11:44:15;;;;;;;141.13;51.25;;;21.70;53.20;;;;;;4908689;28;93006;-68
2022/06/03 11:46:55;;;;;;;185.57;67.95;;;21.80;51.90;;;;;;4889289;28;95427;-68
2022/06/03 11:49:22;;;;;;;176.32;68.88;;;21.80;52.80;;;;;;4908070;28;93225;-68
2022/06/03 11:51:49;;;;;;;157.82;61.58;;;21.70;52.50;;;;;;4890442;28;92874;-68
2022/06/03 11:54:22;;;;;;;145.95;58.50;;;21.80;50.50;;;;;;4908950;28;93150;-68
2022/06/03 11:56:49;;;;;;;119.80;50.47;;;21.80;51.10;;;;;;4908057;28;93702;-68
2022/06/03 11:59:26;;;;;;;115.55;46.20;;;21.80;51.20;;;;;;4890666;28;94339;-67
2022/06/03 12:02:06;;;;;;;114.82;42.60;;;21.80;51.40;;;;;;4907895;28;92704;-68
2022/06/03 12:04:37;;;;;;;105.35;42.45;;;21.80;50.90;;;;;;4891084;28;93065;-68
2022/06/03 12:07:17;;;;;;;100.53;40.25;;;21.80;51.20;;;;;;4909272;28;94196;-68
2022/06/03 12:09:59;;;;;;;101.20;41.78;;;21.80;51.50;;;;;;4909039;28;92983;-67
2022/06/03 12:15:30;;;;;;;86.88;36.28;;;21.80;51.40;;;;;;4909126;28;91983;-67
2022/06/03 12:17:58;;;;;;;85.55;35.25;;;21.80;51.60;;;;;;4908725;28;93202;-67
2022/06/03 12:20:29;;;;;;;82.93;34.53;;;21.80;51.50;;;;;;4908154;28;92966;-67
2022/06/03 12:22:55;;;;;;;53.97;23.52;;;21.80;51.40;;;;;;4906599;28;94612;-67
2022/06/03 12:25:53;;;;;;;56.25;20.80;;;21.70;52.00;;;;;;4909008;28;93357;-69
2022/06/03 12:28:31;;;;;;;67.93;28.02;;;21.80;51.80;;;;;;4823470;28;93381;-67
2022/06/03 12:31:14;;;;;;;60.13;26.40;;;21.80;51.90;;;;;;4909205;28;92842;-67
2022/06/03 12:34:01;;;;;;;56.78;24.42;;;21.80;51.70;;;;;;4909320;28;93142;-69
2022/06/03 12:36:47;;;;;;;53.55;23.02;;;21.80;51.70;;;;;;4907122;28;92152;-67
2022/06/03 12:39:31;;;;;;;50.25;21.65;;;21.80;51.30;;;;;;4908610;28;92749;-68
2022/06/03 12:41:59;;;;;;;47.55;20.58;;;21.70;51.10;;;;;;4907047;28;92923;-68
2022/06/03 12:45:02;;;;;;;42.93;19.37;;;21.80;51.30;;;;;;4908059;28;92754;-67
2022/06/03 12:50:07;;;;;;;38.25;18.25;;;21.80;51.30;;;;;;4890237;28;94265;-67
2022/06/03 12:52:36;;;;;;;40.50;18.23;;;21.80;51.30;;;;;;4908302;28;93692;-68
2022/06/03 12:55:10;;;;;;;39.88;16.10;;;21.70;51.20;;;;;;4908851;28;92009;-67
2022/06/03 12:57:55;;;;;;;41.15;15.80;;;21.70;51.30;;;;;;4890962;28;92751;-68
2022/06/03 13:00:21;;;;;;;38.03;16.98;;;21.70;51.10;;;;;;4891058;28;96284;-67
2022/06/03 13:02:53;;;;;;;40.75;16.20;;;21.70;51.20;;;;;;4908321;28;93255;-67
2022/06/03 13:05:43;;;;;;;36.67;15.25;;;21.70;51.40;;;;;;4908025;28;92692;-69
2022/06/03 13:08:27;;;;;;;33.55;15.63;;;21.70;51.40;;;;;;4890217;28;92946;-68
2022/06/03 13:11:03;;;;;;;36.72;15.25;;;21.70;51.40;;;;;;4889336;28;95196;-68
2022/06/03 13:13:34;;;;;;;34.03;14.75;;;21.70;51.40;;;;;;4907643;28;92731;-67
2022/06/03 13:16:19;;;;;;;27.75;13.75;;;21.70;51.50;;;;;;4906788;28;93936;-69
2022/06/03 13:18:56;;;;;;;31.40;14.73;;;21.70;51.50;;;;;;4907125;28;92626;-67
2022/06/03 13:21:28;;;;;;;29.73;13.95;;;21.70;51.70;;;;;;4906774;28;93224;-68
2022/06/03 13:23:57;;;;;;;32.03;13.48;;;21.70;51.70;;;;;;4907103;28;93139;-68
2022/06/03 13:26:27;;;;;;;32.13;14.02;;;21.70;51.60;;;;;;4907088;28;93085;-67
2022/06/03 13:28:56;;;;;;;29.63;13.25;;;21.70;51.60;;;;;;4889257;28;93593;-66
2022/06/03 13:31:27;;;;;;;30.13;13.93;;;21.80;51.80;;;;;;4905297;28;93207;-69
2022/06/03 13:34:00;;;;;;;37.08;13.35;;;21.80;51.90;;;;;;4904623;28;92975;-67
2022/06/03 13:36:34;;;;;;;26.58;12.13;;;21.80;52.20;;;;;;4910338;28;93282;-68
2022/06/03 13:39:01;;;;;;;30.55;12.57;;;21.90;52.30;;;;;;4908224;28;92979;-69
2022/06/03 13:44:42;;;;;;;34.90;13.02;;;21.90;52.90;;;;;;4911306;28;93466;-68
2022/06/03 13:47:13;;;;;;;27.50;11.65;;;21.90;53.10;;;;;;4911531;28;91996;-69
2022/06/03 13:50:05;;;;;;;31.50;11.57;;;21.90;53.20;;;;;;4911708;28;93078;-70
2022/06/03 13:52:37;;;;;;;27.55;10.90;;;21.90;53.20;;;;;;4910481;28;95118;-66
2022/06/03 13:55:16;;;;;;;27.77;10.70;;;22.00;53.10;;;;;;4910229;28;93200;-68
2022/06/03 13:57:46;;;;;;;;;;;21.90;53.40;;;;;;4893915;28;93323;-67
2022/06/03 14:00:36;;;;;;;33.80;11.00;;;22.00;53.80;;;;;;4912340;28;92450;-68
2022/06/03 14:03:04;;;;;;;23.27;10.07;;;22.00;54.10;;;;;;4911338;28;92739;-67
2022/06/03 14:05:41;;;;;;;23.53;10.27;;;22.00;54.10;;;;;;4911216;28;93173;-67
2022/06/03 14:08:15;;;;;;;42.55;11.75;;;21.90;54.10;;;;;;4910023;28;94212;-69
2022/06/03 14:10:56;;;;;;;33.22;11.45;;;21.90;54.10;;;;;;4908838;28;92698;-69
2022/06/03 14:13:43;;;;;;;45.53;14.05;;;22.00;54.30;;;;;;4910190;28;92781;-69
2022/06/03 14:16:27;;;;;;;42.80;13.73;;;22.00;54.30;;;;;;4891958;28;94671;-69
2022/06/03 14:19:21;;;;;;;33.17;12.38;;;21.90;54.40;;;;;;4909318;28;92061;-69
2022/06/03 14:21:51;;;;;;;41.00;12.68;;;21.90;54.50;;;;;;4900437;28;93433;-69
2022/06/03 14:24:36;;;;;;;29.27;11.55;;;21.90;54.60;;;;;;4891446;28;95724;-69
2022/06/03 14:27:12;;;;;;;31.85;11.05;;;21.90;54.60;;;;;;4910032;28;92278;-69
2022/06/03 14:29:48;;;;;;;27.42;11.27;;;21.90;55.00;;;;;;4909503;28;93061;-68
2022/06/03 14:32:19;;;;;;;22.42;10.45;;;21.90;55.00;;;;;;4909474;28;93151;-70